Terminal Aerodrome Forecast
Issued by NWS

Home | Current Version | Previous Version | Text Only | Print | Product List | Glossary Off
Versions: 1 2 3 4 5 6 7 8 9 10 11 12 13 14 15 16 17 18 19 20 21

000
FTUS43 KPAH 192300
TAFCGI
TAF
KCGI 192331Z 2000/2024 20003KT P6SM SCT100 BKN250
     FM200700 00000KT 3SM BR SKC
     FM200900 00000KT 1SM BR SKC
      TEMPO 2009/2013 1/2SM FG VV002
     FM201300 23005KT P6SM FEW035 SCT250=

USA.gov is the U.S. government's official web portal to all federal, state and local government web resources and services.